Ir a foro Ir al Módulo  



logo_vatsim
logo_vatsur

 


Ruta
Julio 16 de 2014

Los invitamos a hacer uso de ésta gran herramienta!



 

 
Untitled Document
SKAR 210200Z 00000KT 9999 SCT022 24/19 A3007
SKBG 210200Z 06003KT 9999 SCT015 SCT070 21/19 A3004
SKBO 210200Z 34004KT 9999 FEW018 SCT070 13/10 A3039
SKBQ 210200Z 02011KT 9999 FEW015 SCT200 29/24 A2987
SKCG 210200Z 01004KT 9999 FEW015 SCT200 28/25 A2987
SKCL 210200Z 02010KT 9999 FEW020 SCT090 24/19 A2998
SKPE 210200Z VRB02KT 9999 FEW017 SCT090 22/17 A3009
SKRG 210200Z 00000KT 9999 FEW020 SCT090 17/12 A3032